Time;durP1;ratioP1;P1;durP2;ratioP2;P2;SDS_P1;SDS_P2;PMS_P1;PMS_P2;Temp;Humidity;BMP_temperature;BMP_pressure;BME280_temperature;BME280_humidity;BME280_pressure;Samples;Min_cycle;Max_cycle;Signal;HPM_P1;HPM_P2
2023/07/23 00:02:03;;;;;;;6.35;4.45;;;17.30;99.90;;;;;;5030813;28;20215;-78
2023/07/23 00:04:30;;;;;;;5.65;3.90;;;17.40;99.90;;;;;;5023257;28;20205;-78
2023/07/23 00:06:58;;;;;;;5.70;4.40;;;17.50;99.90;;;;;;5024505;28;20696;-78
2023/07/23 00:09:26;;;;;;;7.40;4.30;;;17.40;99.90;;;;;;5030372;28;20179;-77
2023/07/23 00:11:54;;;;;;;5.57;4.00;;;17.30;99.90;;;;;;5026179;28;20194;-78
2023/07/23 00:14:21;;;;;;;5.78;3.90;;;17.30;99.90;;;;;;5054371;28;20207;-78
2023/07/23 00:16:49;;;;;;;6.47;4.10;;;17.30;99.90;;;;;;5028718;28;20214;-78
2023/07/23 00:19:19;;;;;;;5.45;3.80;;;17.40;99.90;;;;;;5030333;28;20209;-78
2023/07/23 00:21:48;;;;;;;4.60;3.60;;;17.40;99.90;;;;;;5028412;28;20712;-78
2023/07/23 00:24:15;;;;;;;6.32;3.63;;;17.40;99.90;;;;;;5030807;28;20191;-78
2023/07/23 00:26:45;;;;;;;7.20;4.00;;;17.40;99.90;;;;;;5027299;28;20227;-78
2023/07/23 00:29:12;;;;;;;5.45;3.78;;;17.40;99.90;;;;;;5033228;28;20195;-78
2023/07/23 00:31:39;;;;;;;4.95;3.88;;;17.40;99.90;;;;;;5034224;28;20194;-78
2023/07/23 00:34:07;;;;;;;6.30;4.07;;;17.40;99.90;;;;;;5036038;28;20210;-78
2023/07/23 00:36:35;;;;;;;6.68;4.47;;;17.50;99.90;;;;;;5033680;28;20219;-78
2023/07/23 00:39:03;;;;;;;5.43;4.03;;;17.50;99.90;;;;;;5032036;28;20203;-78
2023/07/23 00:41:30;;;;;;;6.25;3.95;;;17.70;99.90;;;;;;5032787;28;20211;-79
2023/07/23 00:43:59;;;;;;;8.05;3.80;;;17.70;99.90;;;;;;5033774;28;20226;-78
2023/07/23 00:46:27;;;;;;;4.68;3.50;;;17.70;99.90;;;;;;5032848;28;20584;-78
2023/07/23 00:48:55;;;;;;;4.97;3.30;;;17.50;99.90;;;;;;5029780;28;20199;-78
2023/07/23 00:51:23;;;;;;;4.70;3.47;;;17.60;99.90;;;;;;5026801;28;20211;-79
2023/07/23 00:53:51;;;;;;;6.45;4.00;;;17.60;99.90;;;;;;5032662;28;20195;-78
2023/07/23 00:56:19;;;;;;;4.43;3.55;;;17.60;99.90;;;;;;5034804;28;20226;-78
2023/07/23 00:58:48;;;;;;;5.40;3.67;;;17.60;99.90;;;;;;5033124;28;20199;-79
2023/07/23 01:01:18;;;;;;;4.55;3.40;;;17.60;99.90;;;;;;5030419;28;20215;-78
2023/07/23 01:03:45;;;;;;;5.22;3.70;;;17.60;99.90;;;;;;5031463;28;20191;-78
2023/07/23 01:06:13;;;;;;;5.57;4.07;;;17.60;99.90;;;;;;5032690;28;20219;-78
2023/07/23 01:08:43;;;;;;;5.80;3.70;;;17.60;99.90;;;;;;5030014;28;20203;-79
2023/07/23 01:11:11;;;;;;;5.03;3.80;;;17.60;99.90;;;;;;5031311;28;20661;-79
2023/07/23 01:13:40;;;;;;;5.93;4.00;;;17.70;99.90;;;;;;5034812;28;20206;-78
2023/07/23 01:16:10;;;;;;;6.78;3.95;;;17.50;99.90;;;;;;5030111;28;20226;-78
2023/07/23 01:18:40;;;;;;;3.92;3.42;;;17.40;99.90;;;;;;5029892;28;20582;-78
2023/07/23 01:21:09;;;;;;;4.30;3.38;;;17.30;99.90;;;;;;5032973;28;20206;-78
2023/07/23 01:23:38;;;;;;;5.82;3.95;;;17.30;99.90;;;;;;5028225;28;20196;-78
2023/07/23 01:26:07;;;;;;;4.25;3.53;;;17.40;99.90;;;;;;5031378;28;20219;-78
2023/07/23 01:28:34;;;;;;;5.55;3.83;;;17.40;99.90;;;;;;5033206;28;20195;-79
2023/07/23 01:31:02;;;;;;;4.25;3.60;;;17.40;99.90;;;;;;5024594;28;20573;-78
2023/07/23 01:33:30;;;;;;;4.75;3.90;;;17.40;99.90;;;;;;5032013;28;20187;-78
2023/07/23 01:35:59;;;;;;;5.10;3.78;;;17.40;99.90;;;;;;5034553;28;20226;-78
2023/07/23 01:38:27;;;;;;;7.82;4.00;;;17.40;99.90;;;;;;5030095;28;20204;-78
2023/07/23 01:40:57;;;;;;;5.57;3.92;;;17.50;99.90;;;;;;5025092;28;20199;-78
2023/07/23 01:43:25;;;;;;;5.63;4.28;;;17.60;99.90;;;;;;5031913;28;20218;-78
2023/07/23 01:45:53;;;;;;;6.53;4.05;;;17.60;99.90;;;;;;5030079;28;20222;-78
2023/07/23 01:48:22;;;;;;;5.15;4.38;;;17.60;99.90;;;;;;5028490;28;20227;-78
2023/07/23 01:50:50;;;;;;;7.30;4.10;;;17.60;99.90;;;;;;5030513;28;20210;-78
2023/07/23 01:53:18;;;;;;;7.25;4.28;;;17.60;99.90;;;;;;5024570;28;20595;-78
2023/07/23 01:55:45;;;;;;;5.57;4.20;;;17.60;99.90;;;;;;5032604;28;20199;-78
2023/07/23 01:58:14;;;;;;;6.15;4.75;;;17.60;99.90;;;;;;5033238;28;20206;-79
2023/07/23 02:00:43;;;;;;;5.55;4.20;;;17.60;99.90;;;;;;5029964;28;20195;-78
2023/07/23 02:03:11;;;;;;;5.30;4.20;;;17.60;99.90;;;;;;5025125;28;20580;-78
2023/07/23 02:05:39;;;;;;;5.65;4.47;;;17.70;99.90;;;;;;5029235;28;20191;-78
2023/07/23 02:08:06;;;;;;;8.85;4.57;;;17.60;99.90;;;;;;5026585;28;20207;-78
2023/07/23 02:10:33;;;;;;;5.88;4.38;;;17.60;99.90;;;;;;5026879;28;20681;-78
2023/07/23 02:13:01;;;;;;;5.45;3.90;;;17.70;99.90;;;;;;5025985;28;20203;-78
2023/07/23 02:15:30;;;;;;;7.43;4.20;;;17.80;99.90;;;;;;5023480;28;20206;-78
2023/07/23 02:17:57;;;;;;;6.28;4.43;;;17.90;99.90;;;;;;5024951;28;20195;-78
2023/07/23 02:20:25;;;;;;;5.10;4.55;;;17.90;99.90;;;;;;5030677;28;20212;-78
2023/07/23 02:22:52;;;;;;;5.07;4.57;;;17.90;99.90;;;;;;5025281;28;20216;-78
2023/07/23 02:25:20;;;;;;;7.97;4.30;;;18.00;99.90;;;;;;5033714;28;20218;-78
2023/07/23 02:27:47;;;;;;;6.75;4.55;;;18.00;99.90;;;;;;5030343;28;20226;-78
2023/07/23 02:30:15;;;;;;;6.13;4.13;;;18.00;99.90;;;;;;5031945;28;20210;-78
2023/07/23 02:32:43;;;;;;;7.30;4.50;;;18.00;99.90;;;;;;5028623;28;20573;-78
2023/07/23 02:35:11;;;;;;;5.25;4.75;;;18.10;99.90;;;;;;5031706;28;20212;-78
2023/07/23 02:37:39;;;;;;;6.03;4.18;;;18.10;99.90;;;;;;5031311;28;20226;-78
2023/07/23 02:40:08;;;;;;;7.25;4.78;;;18.10;99.90;;;;;;5032572;28;20210;-78
2023/07/23 02:42:35;;;;;;;5.75;4.80;;;18.20;99.90;;;;;;5031006;28;20207;-78
2023/07/23 02:45:07;;;;;;;5.53;4.45;;;18.20;99.90;;;;;;5032832;28;20704;-78
2023/07/23 02:47:34;;;;;;;4.93;4.03;;;18.30;99.90;;;;;;5028029;28;20215;-78
2023/07/23 02:50:03;;;;;;;6.90;4.85;;;18.30;99.90;;;;;;5030428;28;20207;-78
2023/07/23 02:52:31;;;;;;;6.25;4.35;;;18.30;99.90;;;;;;5029994;28;20215;-78
2023/07/23 02:54:58;;;;;;;5.75;4.25;;;18.40;99.90;;;;;;5026371;28;20206;-78
2023/07/23 02:57:25;;;;;;;4.72;4.22;;;18.40;99.90;;;;;;5029594;28;20708;-78
2023/07/23 02:59:53;;;;;;;6.97;4.30;;;18.40;99.90;;;;;;5030690;28;20191;-78
2023/07/23 03:02:20;;;;;;;6.32;4.70;;;18.40;99.90;;;;;;5022412;28;20678;-78
2023/07/23 03:04:48;;;;;;;4.90;4.43;;;18.50;99.90;;;;;;5023574;28;20202;-78
2023/07/23 03:07:16;;;;;;;5.95;4.00;;;18.50;99.90;;;;;;5023089;28;20219;-79
2023/07/23 03:09:44;;;;;;;4.63;4.03;;;18.50;99.90;;;;;;5028554;28;20195;-78
2023/07/23 03:12:11;;;;;;;4.72;4.18;;;18.50;99.90;;;;;;5064260;28;20203;-78
2023/07/23 03:14:39;;;;;;;4.68;3.90;;;18.50;99.90;;;;;;5025539;28;20207;-78
2023/07/23 03:17:06;;;;;;;7.05;4.47;;;18.50;99.90;;;;;;5029736;28;20223;-77
2023/07/23 03:19:33;;;;;;;5.75;4.05;;;18.50;99.90;;;;;;5025902;28;20685;-78
2023/07/23 03:22:02;;;;;;;6.68;4.47;;;18.50;99.90;;;;;;5029373;28;20191;-78
2023/07/23 03:24:30;;;;;;;5.07;4.55;;;18.60;99.90;;;;;;5046045;28;20202;-78
2023/07/23 03:26:58;;;;;;;5.47;4.50;;;18.60;99.90;;;;;;5026653;28;20230;-78
2023/07/23 03:29:25;;;;;;;5.10;4.57;;;18.60;99.90;;;;;;5031181;28;20214;-78
2023/07/23 03:31:53;;;;;;;5.55;4.75;;;18.60;99.90;;;;;;5030365;28;20202;-78
2023/07/23 03:34:20;;;;;;;5.75;4.53;;;18.60;99.90;;;;;;5030377;28;20202;-78
2023/07/23 03:36:47;;;;;;;4.35;3.92;;;18.60;99.90;;;;;;5055439;28;20219;-78
2023/07/23 03:39:18;;;;;;;5.88;4.32;;;18.60;99.90;;;;;;5030586;28;20210;-78
2023/07/23 03:41:47;;;;;;;5.65;4.10;;;18.60;99.90;;;;;;5023550;28;20589;-78
2023/07/23 03:44:14;;;;;;;6.03;4.47;;;18.70;99.90;;;;;;5029875;28;20219;-78
2023/07/23 03:46:44;;;;;;;4.57;4.13;;;18.60;99.90;;;;;;5020673;28;20227;-78
2023/07/23 03:49:12;;;;;;;6.00;4.30;;;18.60;99.90;;;;;;5032909;28;20576;-77
2023/07/23 03:51:39;;;;;;;6.25;4.22;;;18.60;99.90;;;;;;5031894;28;20225;-78
2023/07/23 03:54:07;;;;;;;5.20;4.57;;;18.70;99.90;;;;;;5031569;28;20187;-78
2023/07/23 03:56:34;;;;;;;5.45;4.35;;;18.70;99.90;;;;;;5030286;28;20225;-78
2023/07/23 03:59:04;;;;;;;4.40;4.00;;;18.70;99.90;;;;;;5022484;28;20210;-78
2023/07/23 04:01:31;;;;;;;5.05;4.53;;;18.70;99.90;;;;;;5026259;28;20199;-79
2023/07/23 04:03:59;;;;;;;6.25;4.72;;;18.70;99.90;;;;;;5029014;28;20739;-78
2023/07/23 04:06:27;;;;;;;6.07;4.22;;;18.70;99.90;;;;;;5024884;28;20225;-78
2023/07/23 04:08:55;;;;;;;5.00;3.75;;;18.80;99.90;;;;;;5029744;28;20203;-78
2023/07/23 04:11:22;;;;;;;5.63;4.95;;;18.80;99.90;;;;;;5029798;28;20214;-78
2023/07/23 04:13:50;;;;;;;5.18;4.47;;;18.80;99.90;;;;;;5026842;28;20195;-78
2023/07/23 04:16:19;;;;;;;5.82;4.40;;;18.80;99.90;;;;;;5023789;28;20226;-78
2023/07/23 04:18:47;;;;;;;5.55;4.07;;;18.90;99.90;;;;;;5029253;28;20206;-78
2023/07/23 04:21:15;;;;;;;6.70;4.70;;;19.00;99.90;;;;;;5029728;28;20205;-78
2023/07/23 04:23:46;;;;;;;6.07;4.47;;;19.00;99.90;;;;;;5030099;28;20657;-78
2023/07/23 04:26:14;;;;;;;5.60;4.43;;;19.00;99.90;;;;;;5029847;28;20689;-78
2023/07/23 04:28:41;;;;;;;5.65;3.88;;;19.00;99.90;;;;;;5028004;28;20202;-78
2023/07/23 04:31:09;;;;;;;4.20;3.80;;;19.10;99.90;;;;;;5026135;28;20195;-78
2023/07/23 04:33:37;;;;;;;4.88;4.35;;;19.10;99.90;;;;;;5030168;28;20199;-78
2023/07/23 04:36:07;;;;;;;6.35;4.72;;;19.20;99.90;;;;;;5030903;28;20218;-78
2023/07/23 04:38:34;;;;;;;7.13;4.50;;;19.20;99.90;;;;;;5030811;28;20210;-78
2023/07/23 04:41:02;;;;;;;4.45;4.05;;;19.20;99.90;;;;;;5029729;28;20202;-78
2023/07/23 04:43:35;;;;;;;5.35;4.10;;;19.20;99.90;;;;;;5027806;28;20219;-78
2023/07/23 04:46:04;;;;;;;6.78;4.40;;;19.30;99.90;;;;;;5026203;28;20223;-78
2023/07/23 04:48:31;;;;;;;5.25;3.95;;;19.30;99.90;;;;;;5028116;28;20206;-79
2023/07/23 04:51:02;;;;;;;5.57;3.65;;;19.30;99.90;;;;;;5021474;28;20206;-79
2023/07/23 04:53:29;;;;;;;4.20;3.80;;;19.30;99.90;;;;;;5030603;28;20199;-79
2023/07/23 04:55:58;;;;;;;4.28;3.75;;;19.30;99.90;;;;;;5024725;28;20238;-79
2023/07/23 04:58:26;;;;;;;6.50;4.20;;;19.30;99.90;;;;;;5030811;28;20214;-79
2023/07/23 05:04:20;;;;;;;5.53;4.00;;;19.30;99.90;;;;;;5025504;28;20582;-79
2023/07/23 05:06:49;;;;;;;4.65;3.70;;;19.30;99.90;;;;;;5032206;28;20223;-79
2023/07/23 05:09:16;;;;;;;4.65;3.65;;;19.40;99.90;;;;;;5032700;28;20199;-79
2023/07/23 05:11:43;;;;;;;8.23;4.10;;;19.40;99.90;;;;;;5028684;28;20204;-79
2023/07/23 05:14:11;;;;;;;6.03;4.00;;;19.40;99.90;;;;;;5020757;28;20214;-79
2023/07/23 05:16:39;;;;;;;6.07;4.47;;;19.40;99.90;;;;;;5032838;28;20226;-79
2023/07/23 05:19:07;;;;;;;8.18;3.67;;;19.40;99.90;;;;;;5034094;28;20206;-79
2023/07/23 05:21:36;;;;;;;4.53;3.53;;;19.50;99.90;;;;;;5034775;28;20199;-79
2023/07/23 05:24:05;;;;;;;4.40;3.83;;;19.50;99.90;;;;;;5035761;28;20207;-79
2023/07/23 05:26:33;;;;;;;5.50;3.72;;;19.50;99.90;;;;;;5032048;28;20219;-79
2023/07/23 05:29:00;;;;;;;6.15;3.60;;;19.50;99.90;;;;;;5031841;28;20194;-79
2023/07/23 05:31:27;;;;;;;5.35;3.45;;;19.50;99.90;;;;;;5023714;28;20195;-79
2023/07/23 05:33:55;;;;;;;7.78;3.80;;;19.50;99.90;;;;;;5026453;28;20202;-79
2023/07/23 05:36:22;;;;;;;5.25;3.70;;;19.50;99.90;;;;;;5031285;28;20226;-79
2023/07/23 05:38:50;;;;;;;5.90;3.70;;;19.50;99.90;;;;;;5067710;28;20202;-79
2023/07/23 05:41:18;;;;;;;6.35;4.43;;;19.50;99.90;;;;;;5033553;28;20210;-79
2023/07/23 05:43:46;;;;;;;4.57;3.20;;;19.50;99.90;;;;;;5029619;28;20222;-79
2023/07/23 05:46:13;;;;;;;6.68;3.70;;;19.50;99.90;;;;;;5034118;28;20562;-79
2023/07/23 05:48:41;;;;;;;4.50;3.80;;;19.50;99.90;;;;;;5030477;28;20199;-78
2023/07/23 05:51:08;;;;;;;4.70;3.30;;;19.60;99.90;;;;;;5027930;28;20202;-79
2023/07/23 05:57:01;;;;;;;4.30;3.38;;;19.50;99.90;;;;;;5034439;28;20211;-79
2023/07/23 05:59:29;;;;;;;4.18;2.83;;;19.60;99.90;;;;;;5032967;28;20202;-78
2023/07/23 06:01:56;;;;;;;3.75;3.28;;;19.50;99.90;;;;;;5029486;28;20207;-79
2023/07/23 06:04:23;;;;;;;3.17;2.83;;;19.60;99.90;;;;;;5031625;28;20215;-79
2023/07/23 06:06:51;;;;;;;5.57;3.30;;;19.60;99.90;;;;;;5030332;28;20215;-79
2023/07/23 06:09:19;;;;;;;3.67;3.03;;;19.60;99.90;;;;;;5032767;28;20226;-79
2023/07/23 06:11:46;;;;;;;3.28;2.97;;;19.60;99.90;;;;;;5032685;28;20187;-79
2023/07/23 06:14:15;;;;;;;4.07;3.10;;;19.60;99.90;;;;;;5030248;28;20198;-79
2023/07/23 06:16:42;;;;;;;4.35;3.17;;;19.70;99.90;;;;;;5046467;28;20219;-79
2023/07/23 06:19:10;;;;;;;5.20;3.05;;;19.70;99.90;;;;;;5030789;28;20547;-79
2023/07/23 06:21:37;;;;;;;8.05;3.08;;;19.80;99.90;;;;;;5029351;28;20198;-79
2023/07/23 06:24:05;;;;;;;3.33;2.70;;;19.80;99.90;;;;;;5031949;28;20712;-79
2023/07/23 06:26:33;;;;;;;3.58;2.67;;;19.80;99.90;;;;;;5032340;28;20234;-79
2023/07/23 06:29:00;;;;;;;3.90;2.90;;;19.80;99.90;;;;;;5032734;28;20190;-79
2023/07/23 06:31:29;;;;;;;3.63;2.78;;;19.80;99.90;;;;;;5042877;28;20203;-78
2023/07/23 06:34:02;;;;;;;8.57;2.97;;;19.80;99.90;;;;;;5032863;28;20191;-78
2023/07/23 06:36:30;;;;;;;3.45;2.60;;;19.80;99.90;;;;;;5027422;28;20575;-79
2023/07/23 06:38:57;;;;;;;3.33;2.90;;;19.90;99.90;;;;;;5030685;28;20214;-79
2023/07/23 06:41:26;;;;;;;5.93;2.90;;;19.90;99.90;;;;;;5028797;28;20200;-78
2023/07/23 06:43:53;;;;;;;3.83;3.25;;;19.90;99.90;;;;;;5030877;28;20206;-79
2023/07/23 06:46:20;;;;;;;3.25;2.95;;;19.90;99.90;;;;;;5028769;28;20220;-79
2023/07/23 06:48:49;;;;;;;6.65;4.97;;;20.00;99.90;;;;;;5031447;28;20567;-79
2023/07/23 06:51:17;;;;;;;5.40;3.58;;;20.00;99.90;;;;;;5034260;28;20214;-79
2023/07/23 06:53:44;;;;;;;5.28;3.85;;;20.00;99.90;;;;;;5031520;28;20203;-79
2023/07/23 06:56:13;;;;;;;3.88;2.72;;;19.90;99.90;;;;;;5026292;28;20226;-79
2023/07/23 06:58:40;;;;;;;4.35;2.67;;;20.00;99.90;;;;;;5032889;28;20199;-80
2023/07/23 07:01:09;;;;;;;3.72;2.70;;;20.00;99.90;;;;;;5026196;28;20218;-79
2023/07/23 07:03:37;;;;;;;4.65;3.13;;;20.00;99.90;;;;;;5025914;28;20206;-80
2023/07/23 07:06:09;;;;;;;3.20;2.72;;;19.90;99.90;;;;;;5032490;28;20233;-79
2023/07/23 07:08:36;;;;;;;2.88;2.45;;;19.90;99.90;;;;;;5029842;28;20203;-80
2023/07/23 07:11:09;;;;;;;4.13;2.70;;;19.90;99.90;;;;;;5028061;28;20214;-80
2023/07/23 07:13:38;;;;;;;4.07;2.72;;;19.90;99.90;;;;;;5031885;28;20203;-79
2023/07/23 07:16:06;;;;;;;2.95;2.50;;;19.80;99.90;;;;;;5027273;28;20219;-80
2023/07/23 07:18:33;;;;;;;3.78;2.75;;;19.70;99.90;;;;;;5024029;28;20210;-80
2023/07/23 07:21:01;;;;;;;2.90;2.55;;;19.70;99.90;;;;;;5025787;28;20191;-79
2023/07/23 07:23:31;;;;;;;4.28;2.72;;;19.70;99.90;;;;;;5033635;28;20211;-79
2023/07/23 07:26:00;;;;;;;3.90;2.83;;;19.70;99.90;;;;;;5030747;28;20222;-80
2023/07/23 07:28:34;;;;;;;3.67;2.67;;;19.80;99.90;;;;;;5031493;28;20198;-80
2023/07/23 07:31:03;;;;;;;3.63;2.90;;;19.80;99.90;;;;;;5029284;28;20199;-80
2023/07/23 07:33:30;;;;;;;3.80;2.78;;;19.80;99.90;;;;;;5031142;28;20195;-80
2023/07/23 07:35:59;;;;;;;5.30;3.40;;;19.80;99.90;;;;;;5024789;28;20214;-80
2023/07/23 07:38:27;;;;;;;4.50;3.08;;;19.90;99.90;;;;;;5029742;28;20210;-80
2023/07/23 07:40:57;;;;;;;5.30;2.97;;;19.80;99.90;;;;;;5029345;28;20218;-80
2023/07/23 07:43:29;;;;;;;3.53;3.00;;;19.80;99.90;;;;;;5022851;28;20202;-80
2023/07/23 07:45:59;;;;;;;3.33;3.03;;;19.80;99.90;;;;;;5030376;28;20234;-79
2023/07/23 07:48:27;;;;;;;3.85;3.28;;;19.70;99.90;;;;;;5027708;28;20203;-79
2023/07/23 07:51:01;;;;;;;4.78;3.15;;;19.60;99.90;;;;;;5031845;28;20211;-79
2023/07/23 07:53:29;;;;;;;6.78;3.55;;;19.60;99.90;;;;;;5031787;28;20540;-79
2023/07/23 07:55:58;;;;;;;3.40;3.10;;;19.50;99.90;;;;;;5026297;28;20215;-79
2023/07/23 07:58:26;;;;;;;4.00;3.50;;;19.30;99.90;;;;;;5025811;28;20191;-79
2023/07/23 08:00:55;;;;;;;3.65;3.15;;;19.20;99.90;;;;;;5027631;28;20211;-79
2023/07/23 08:03:24;;;;;;;4.93;3.63;;;19.10;99.90;;;;;;5036772;28;20540;-79
2023/07/23 08:05:52;;;;;;;4.60;3.00;;;19.00;99.90;;;;;;5027948;28;20215;-79
2023/07/23 08:08:23;;;;;;;4.22;2.75;;;18.90;99.90;;;;;;5035346;28;20183;-79
2023/07/23 08:10:51;;;;;;;4.63;3.08;;;18.90;99.90;;;;;;5025719;28;20203;-79
2023/07/23 08:13:20;;;;;;;4.47;2.90;;;18.90;99.90;;;;;;5032991;28;20218;-79
2023/07/23 08:15:48;;;;;;;3.05;2.75;;;18.90;99.90;;;;;;5029659;28;20198;-79
2023/07/23 08:18:16;;;;;;;3.78;3.05;;;18.90;99.90;;;;;;5051078;28;20207;-80
2023/07/23 08:20:49;;;;;;;4.28;3.03;;;18.90;99.90;;;;;;5060001;28;20198;-79
2023/07/23 08:23:26;;;;;;;3.45;2.72;;;19.00;99.90;;;;;;5032656;28;20195;-80
2023/07/23 08:25:56;;;;;;;7.20;3.63;;;19.00;99.90;;;;;;5032709;28;20597;-80
2023/07/23 08:28:29;;;;;;;4.32;2.90;;;19.10;99.90;;;;;;5031294;28;20210;-80
2023/07/23 08:30:57;;;;;;;4.55;3.38;;;19.10;99.90;;;;;;5025972;28;20592;-80
2023/07/23 08:33:33;;;;;;;3.90;2.95;;;19.10;99.90;;;;;;5031512;28;20203;-79
2023/07/23 08:36:03;;;;;;;4.30;2.67;;;19.10;99.90;;;;;;5030804;28;20222;-80
2023/07/23 08:38:31;;;;;;;4.07;2.95;;;18.90;99.90;;;;;;5026592;28;20202;-79
2023/07/23 08:41:02;;;;;;;3.53;3.17;;;19.00;99.90;;;;;;5025791;28;20211;-80
2023/07/23 08:44:10;;;;;;;8.55;3.00;;;19.10;99.90;;;;;;5025949;28;20199;-79
2023/07/23 08:46:45;;;;;;;4.18;3.00;;;18.90;99.90;;;;;;5049984;28;20231;-79
2023/07/23 08:49:13;;;;;;;3.42;2.97;;;18.90;99.90;;;;;;5029970;28;20206;-79
2023/07/23 08:51:44;;;;;;;4.55;3.30;;;18.90;99.90;;;;;;5031781;28;20211;-79
2023/07/23 08:54:14;;;;;;;4.55;3.30;;;18.90;99.90;;;;;;5031859;28;20199;-79
2023/07/23 08:56:50;;;;;;;5.93;3.67;;;18.80;99.90;;;;;;5030706;28;20211;-79
2023/07/23 08:59:38;;;;;;;3.45;3.15;;;18.80;99.90;;;;;;5036198;28;20196;-79
2023/07/23 09:02:10;;;;;;;5.47;3.78;;;18.50;99.90;;;;;;5061858;28;20560;-79
2023/07/23 09:04:38;;;;;;;5.82;3.45;;;18.40;99.90;;;;;;5031154;28;20210;-80
2023/07/23 09:07:10;;;;;;;4.00;3.17;;;18.20;99.90;;;;;;5033454;28;20238;-79
2023/07/23 09:09:38;;;;;;;5.00;3.65;;;18.20;99.90;;;;;;5029963;28;20203;-79
2023/07/23 09:12:06;;;;;;;4.65;3.35;;;18.10;99.90;;;;;;5033093;28;20216;-80
2023/07/23 09:14:42;;;;;;;5.55;3.72;;;17.90;99.90;;;;;;5032322;28;20192;-79
2023/07/23 09:17:17;;;;;;;6.25;3.67;;;17.90;99.90;;;;;;5031903;28;20221;-80
2023/07/23 09:19:44;;;;;;;4.70;3.70;;;17.90;99.90;;;;;;5032512;28;20202;-80
2023/07/23 09:22:12;;;;;;;5.25;3.88;;;17.60;99.90;;;;;;5034147;28;20214;-80
2023/07/23 09:24:47;;;;;;;5.53;3.70;;;17.70;99.90;;;;;;5035393;28;20655;-80
2023/07/23 09:27:16;;;;;;;5.93;4.35;;;17.60;99.90;;;;;;5032610;28;20218;-79
2023/07/23 09:29:47;;;;;;;4.63;4.10;;;17.60;99.90;;;;;;5025866;28;20191;-80
2023/07/23 09:32:25;;;;;;;7.35;4.55;;;17.40;99.90;;;;;;5030905;28;20206;-80
2023/07/23 09:35:03;;;;;;;5.20;3.72;;;17.30;99.90;;;;;;5032537;28;20203;-79
2023/07/23 09:37:30;;;;;;;5.22;3.70;;;17.50;99.90;;;;;;5028234;28;20223;-80
2023/07/23 09:39:58;;;;;;;6.78;4.20;;;17.20;99.90;;;;;;5035378;28;20218;-79
2023/07/23 09:42:25;;;;;;;5.22;4.07;;;17.10;99.90;;;;;;5032501;28;20191;-80
2023/07/23 09:45:00;;;;;;;5.20;3.85;;;17.00;99.90;;;;;;5066336;28;20214;-79
2023/07/23 09:47:37;;;;;;;5.93;4.03;;;17.00;99.90;;;;;;5032384;28;20226;-79
2023/07/23 09:50:06;;;;;;;4.57;3.75;;;17.00;99.90;;;;;;5026193;28;20202;-80
2023/07/23 09:52:35;;;;;;;5.20;3.90;;;17.00;99.90;;;;;;5030926;28;20219;-80
2023/07/23 09:55:04;;;;;;;7.25;3.72;;;16.90;99.90;;;;;;5028966;28;20195;-79
2023/07/23 09:57:34;;;;;;;5.07;4.57;;;16.90;99.90;;;;;;5043662;28;20230;-80
2023/07/23 10:00:03;;;;;;;4.78;3.80;;;17.00;99.90;;;;;;5032802;28;20191;-79
2023/07/23 10:02:40;;;;;;;4.15;3.75;;;16.90;99.90;;;;;;5030304;28;20195;-79
2023/07/23 10:05:08;;;;;;;4.28;3.50;;;16.90;99.90;;;;;;5026719;28;20590;-80
2023/07/23 10:07:45;;;;;;;5.80;4.05;;;17.00;99.90;;;;;;5029863;28;20215;-79
2023/07/23 10:10:19;;;;;;;4.30;3.90;;;16.90;99.90;;;;;;5027843;28;20222;-79
2023/07/23 10:12:47;;;;;;;6.25;4.82;;;16.80;99.90;;;;;;5025283;28;20202;-80
2023/07/23 10:15:16;;;;;;;5.05;4.20;;;16.90;99.90;;;;;;5032496;28;20579;-79
2023/07/23 10:17:48;;;;;;;4.70;4.05;;;16.90;99.90;;;;;;5031935;28;20226;-79
2023/07/23 10:20:17;;;;;;;4.63;3.65;;;17.10;99.90;;;;;;5046139;28;20203;-79
2023/07/23 10:22:46;;;;;;;5.13;3.92;;;17.10;99.90;;;;;;5027433;28;20207;-79
2023/07/23 10:25:30;;;;;;;4.35;3.95;;;17.10;99.90;;;;;;5025555;28;20211;-80
2023/07/23 10:28:00;;;;;;;5.60;3.90;;;17.00;99.90;;;;;;5031754;28;20211;-79
2023/07/23 10:30:30;;;;;;;5.07;4.00;;;17.10;99.90;;;;;;5033516;28;20187;-79
2023/07/23 10:33:29;;;;;;;4.72;3.55;;;17.20;99.90;;;;;;5031417;28;20195;-79
2023/07/23 10:36:05;;;;;;;4.07;3.40;;;17.10;99.90;;;;;;5029085;28;20207;-78
2023/07/23 10:38:34;;;;;;;3.90;3.35;;;17.10;99.90;;;;;;5033559;28;20214;-78
2023/07/23 10:41:03;;;;;;;4.03;3.45;;;17.00;99.90;;;;;;5029272;28;20199;-78
2023/07/23 10:43:49;;;;;;;4.95;4.47;;;17.20;99.90;;;;;;5029436;28;20199;-78
2023/07/23 10:46:21;;;;;;;5.82;4.13;;;17.20;99.90;;;;;;5022384;28;20203;-78
2023/07/23 10:48:49;;;;;;;4.55;3.90;;;17.30;99.90;;;;;;5030211;28;20206;-78
2023/07/23 10:51:18;;;;;;;4.38;3.40;;;17.30;99.90;;;;;;5024638;28;20217;-78
2023/07/23 10:53:56;;;;;;;7.10;3.97;;;17.30;99.90;;;;;;5030908;28;20210;-78
2023/07/23 10:56:26;;;;;;;4.85;4.22;;;17.30;99.90;;;;;;5023938;28;20222;-78
2023/07/23 10:59:03;;;;;;;5.00;4.18;;;17.20;99.90;;;;;;5029964;28;20204;-79
2023/07/23 11:01:35;;;;;;;5.72;3.65;;;17.30;99.90;;;;;;5029964;28;20209;-79
2023/07/23 11:04:17;;;;;;;4.45;4.05;;;17.30;99.90;;;;;;5029097;28;20203;-78
2023/07/23 11:07:25;;;;;;;6.25;4.28;;;17.40;99.90;;;;;;5042566;28;20215;-78
2023/07/23 11:09:55;;;;;;;4.50;3.85;;;17.40;99.90;;;;;;5045642;28;20202;-78
2023/07/23 11:12:24;;;;;;;5.05;4.53;;;17.40;99.90;;;;;;5031193;28;20672;-79
2023/07/23 11:14:53;;;;;;;4.88;3.67;;;17.60;99.90;;;;;;5025627;28;20209;-77
2023/07/23 11:17:24;;;;;;;3.97;3.58;;;17.50;99.90;;;;;;5030017;28;20215;-79
2023/07/23 11:19:57;;;;;;;4.68;3.78;;;17.50;99.90;;;;;;5027124;28;20191;-79
2023/07/23 11:22:27;;;;;;;4.57;3.83;;;17.60;99.90;;;;;;5031292;28;20233;-79
2023/07/23 11:24:56;;;;;;;3.88;3.58;;;17.60;99.90;;;;;;5044999;28;20207;-79
2023/07/23 11:27:24;;;;;;;4.38;3.83;;;17.60;99.90;;;;;;5029962;28;20222;-79
2023/07/23 11:30:00;;;;;;;4.45;3.72;;;17.60;99.90;;;;;;5026041;28;20195;-79
2023/07/23 11:32:29;;;;;;;3.97;3.58;;;17.80;99.90;;;;;;5025815;28;20210;-79
2023/07/23 11:34:56;;;;;;;4.22;3.83;;;17.60;99.90;;;;;;5027143;28;20202;-79
2023/07/23 11:37:24;;;;;;;4.70;4.30;;;17.70;99.90;;;;;;5031407;28;20233;-79
2023/07/23 11:39:52;;;;;;;3.58;3.28;;;17.70;99.90;;;;;;5029492;28;20568;-78
2023/07/23 11:42:20;;;;;;;3.60;3.30;;;17.60;99.90;;;;;;5022661;28;20195;-78
2023/07/23 11:45:10;;;;;;;3.60;3.30;;;17.60;99.90;;;;;;5028766;28;20202;-79
2023/07/23 11:47:48;;;;;;;4.18;3.70;;;17.50;99.90;;;;;;5031470;28;20222;-79
2023/07/23 11:50:16;;;;;;;4.00;3.60;;;17.50;99.90;;;;;;5029726;28;20241;-79
2023/07/23 11:52:43;;;;;;;2.97;2.78;;;17.60;99.90;;;;;;5023785;28;20246;-79
2023/07/23 11:55:43;;;;;;;3.55;3.25;;;17.50;99.90;;;;;;5055894;28;20661;-79
2023/07/23 11:58:18;;;;;;;3.20;2.90;;;17.50;99.90;;;;;;5028756;28;20203;-78
2023/07/23 12:00:49;;;;;;;3.10;2.80;;;17.50;99.90;;;;;;5030138;28;20214;-78
2023/07/23 12:03:17;;;;;;;3.47;3.13;;;17.50;99.90;;;;;;5029737;28;20569;-78
2023/07/23 12:05:46;;;;;;;4.03;2.97;;;17.50;99.90;;;;;;5030516;28;20208;-79
2023/07/23 12:08:29;;;;;;;3.95;3.47;;;17.50;99.90;;;;;;5054917;28;20215;-79
2023/07/23 12:10:57;;;;;;;3.58;3.28;;;17.50;99.90;;;;;;5030928;28;20187;-79
2023/07/23 12:13:26;;;;;;;3.55;3.22;;;17.50;99.90;;;;;;5027940;28;20246;-78
2023/07/23 12:15:57;;;;;;;3.40;3.05;;;17.50;99.90;;;;;;5027673;28;20201;-78
2023/07/23 12:18:28;;;;;;;4.05;3.38;;;17.40;99.90;;;;;;5027118;28;20199;-79
2023/07/23 12:21:10;;;;;;;4.07;3.65;;;17.50;99.90;;;;;;5026611;28;20183;-79
2023/07/23 12:23:42;;;;;;;3.78;3.30;;;17.60;99.90;;;;;;5018517;28;20194;-79
2023/07/23 12:26:10;;;;;;;4.80;3.47;;;17.60;99.90;;;;;;5030222;28;20230;-78
2023/07/23 12:28:37;;;;;;;3.90;3.40;;;17.60;99.90;;;;;;5035053;28;20222;-79
2023/07/23 12:31:04;;;;;;;4.78;3.20;;;17.60;99.90;;;;;;5034120;28;20661;-79
2023/07/23 12:33:33;;;;;;;3.38;3.08;;;17.60;99.90;;;;;;5034609;28;20207;-79
2023/07/23 12:36:01;;;;;;;3.58;3.28;;;17.70;99.90;;;;;;5027438;28;20218;-79
2023/07/23 12:38:28;;;;;;;3.65;3.22;;;17.80;99.90;;;;;;5027292;28;20196;-79
2023/07/23 12:40:55;;;;;;;3.53;3.20;;;17.80;99.90;;;;;;5027774;28;20199;-78
2023/07/23 12:43:40;;;;;;;3.97;2.97;;;17.70;99.90;;;;;;5033341;28;20213;-79
2023/07/23 12:46:07;;;;;;;2.95;2.65;;;17.70;99.90;;;;;;5026363;28;20229;-78
2023/07/23 12:48:36;;;;;;;3.53;3.20;;;17.60;99.90;;;;;;5031143;28;20211;-78
2023/07/23 12:51:03;;;;;;;3.22;2.92;;;17.60;99.90;;;;;;5032299;28;20203;-78
2023/07/23 12:54:03;;;;;;;3.45;3.10;;;17.60;99.90;;;;;;5035016;28;20195;-79
2023/07/23 12:56:30;;;;;;;3.20;2.90;;;17.70;99.90;;;;;;5049330;28;20242;-78
2023/07/23 12:58:57;;;;;;;3.60;3.10;;;17.80;99.90;;;;;;5027239;28;20206;-78
2023/07/23 13:01:25;;;;;;;4.05;3.38;;;17.70;99.90;;;;;;5029776;28;20213;-79
2023/07/23 13:03:54;;;;;;;3.63;3.33;;;17.70;99.90;;;;;;5031932;28;20211;-79
2023/07/23 13:06:21;;;;;;;3.72;3.30;;;17.60;99.90;;;;;;5029108;28;20227;-79
2023/07/23 13:08:48;;;;;;;3.45;3.15;;;17.70;99.90;;;;;;5032904;28;20211;-79